Jerry City, Ohio
Current Conditions -  °F | °C
As of 1:53 AM on Saturday 29 Nov 2014 (Local Time) from KFDY Reporting Station
Overcast Overcast  
Wind Chill: -4°   Ceiling: 11000
Heat Index:   Visibility: 10mi
Dew Point: -6°   Wind: 10mph
Humidity: 61%   Direction: 160°SSE
Pressure: 30.02"   Gusts: NA
Location:  41.25°N, 83.6°W
Report Text: KFDY 290653Z AUTO 16009KT 10SM OVC110 01/M06 A3002 RMK AO2 SLP170 T00061061
Loading
Personal Weather Stations






























Interactive Weather Map New forecast layout! Learn more

10-Day Weather Forecast

Advertisements
Track Severe Weather on mobile